Time;durP1;ratioP1;P1;durP2;ratioP2;P2;SDS_P1;SDS_P2;PMS_P1;PMS_P2;Temp;Humidity;BMP_temperature;BMP_pressure;BME280_temperature;BME280_humidity;BME280_pressure;Samples;Min_cycle;Max_cycle;Signal;HPM_P1;HPM_P2
2021/07/01 00:00:26;;;;;;;10.45;6.10;;;15.20;88.00;;;;;;5055235;28;20088;-82
2021/07/01 00:02:51;;;;;;;10.55;6.63;;;15.20;87.90;;;;;;5053890;28;20577;-80
2021/07/01 00:05:17;;;;;;;13.85;6.78;;;15.20;87.90;;;;;;5053381;28;20733;-80
2021/07/01 00:07:44;;;;;;;11.13;6.80;;;15.20;88.00;;;;;;5054632;28;20052;-79
2021/07/01 00:10:12;;;;;;;9.02;6.70;;;15.20;88.00;;;;;;5054800;28;20075;-80
2021/07/01 00:12:38;;;;;;;10.57;5.93;;;15.20;88.00;;;;;;5053444;28;20021;-79
2021/07/01 00:15:06;;;;;;;11.35;5.95;;;15.10;88.00;;;;;;5054680;28;20021;-79
2021/07/01 00:17:31;;;;;;;7.68;5.50;;;15.20;88.70;;;;;;5053510;28;20049;-79
2021/07/01 00:19:57;;;;;;;9.60;5.93;;;15.20;88.00;;;;;;5054850;28;20462;-78
2021/07/01 00:22:23;;;;;;;8.35;5.55;;;15.20;88.10;;;;;;5054699;28;20051;-78
2021/07/01 00:24:49;;;;;;;9.10;5.65;;;15.20;88.10;;;;;;5053210;28;20503;-78
2021/07/01 00:27:14;;;;;;;9.23;5.60;;;15.20;88.10;;;;;;5054587;28;20103;-78
2021/07/01 00:29:40;;;;;;;9.70;6.18;;;15.20;88.10;;;;;;5052092;28;20465;-78
2021/07/01 00:32:06;;;;;;;7.20;5.15;;;15.10;88.10;;;;;;5054304;28;20104;-78
2021/07/01 00:34:32;;;;;;;7.70;5.22;;;15.10;88.10;;;;;;5054392;28;20075;-78
2021/07/01 00:36:58;;;;;;;6.45;5.10;;;15.10;88.20;;;;;;5053017;28;20059;-78
2021/07/01 00:39:24;;;;;;;9.32;5.35;;;15.10;88.20;;;;;;5052981;28;20029;-78
2021/07/01 00:41:49;;;;;;;6.05;5.15;;;15.10;88.20;;;;;;5052838;28;20025;-78
2021/07/01 00:44:15;;;;;;;9.25;5.78;;;15.10;88.20;;;;;;5054423;28;20025;-78
2021/07/01 00:46:40;;;;;;;9.85;5.90;;;15.20;88.30;;;;;;5052879;28;20056;-78
2021/07/01 00:49:06;;;;;;;8.93;5.43;;;15.10;88.30;;;;;;5054118;28;20488;-78
2021/07/01 00:51:31;;;;;;;9.10;6.45;;;15.20;88.30;;;;;;5052918;28;20025;-79
2021/07/01 00:53:57;;;;;;;11.38;5.85;;;15.10;88.20;;;;;;5052744;28;20111;-78
2021/07/01 00:56:24;;;;;;;10.13;6.30;;;15.10;88.20;;;;;;5052718;28;20028;-78
2021/07/01 00:58:53;;;;;;;7.97;5.60;;;15.10;88.30;;;;;;5052576;28;20090;-78
2021/07/01 01:01:18;;;;;;;9.18;5.75;;;15.10;88.30;;;;;;5052587;28;20048;-78
2021/07/01 01:03:44;;;;;;;11.02;6.00;;;15.10;88.30;;;;;;5053636;28;20084;-78
2021/07/01 01:06:10;;;;;;;10.80;7.00;;;15.10;88.40;;;;;;5052616;28;20387;-78
2021/07/01 01:08:35;;;;;;;12.60;6.90;;;15.10;88.40;;;;;;5052482;28;20025;-78
2021/07/01 01:11:01;;;;;;;10.70;6.53;;;15.10;88.40;;;;;;5052833;28;20021;-79
2021/07/01 01:13:26;;;;;;;11.02;6.85;;;15.10;88.40;;;;;;5052423;28;20079;-78
2021/07/01 01:15:54;;;;;;;12.25;6.95;;;15.00;88.40;;;;;;5053579;28;20021;-78
2021/07/01 01:18:20;;;;;;;9.68;6.30;;;15.00;88.50;;;;;;5053689;28;20028;-78
2021/07/01 01:20:48;;;;;;;11.90;6.10;;;15.00;88.40;;;;;;5052228;28;20017;-78
2021/07/01 01:23:14;;;;;;;11.43;6.25;;;15.00;88.40;;;;;;5052171;28;20069;-79
2021/07/01 01:25:41;;;;;;;8.55;6.15;;;15.00;88.40;;;;;;5053401;28;20025;-79
2021/07/01 01:28:06;;;;;;;10.45;6.25;;;15.00;88.50;;;;;;5052063;28;20021;-78
2021/07/01 01:30:32;;;;;;;9.88;6.75;;;15.00;88.50;;;;;;5053466;28;20044;-79
2021/07/01 01:32:58;;;;;;;9.77;6.25;;;15.00;88.50;;;;;;5053240;28;20029;-78
2021/07/01 01:35:23;;;;;;;11.18;5.80;;;15.00;88.50;;;;;;5053343;28;20025;-78
2021/07/01 01:37:49;;;;;;;9.20;6.10;;;15.00;88.50;;;;;;5051942;28;20056;-78
2021/07/01 01:40:14;;;;;;;8.90;5.80;;;15.00;88.50;;;;;;5051557;28;20086;-78
2021/07/01 01:42:41;;;;;;;8.02;5.38;;;15.10;88.50;;;;;;5052117;28;20388;-78
2021/07/01 01:45:07;;;;;;;9.80;6.22;;;15.00;88.30;;;;;;5052077;28;20021;-78
2021/07/01 01:47:33;;;;;;;8.02;5.78;;;15.00;88.40;;;;;;5052188;28;20485;-78
2021/07/01 01:49:59;;;;;;;7.65;5.00;;;15.00;88.40;;;;;;5053495;28;20060;-78
2021/07/01 01:52:25;;;;;;;9.88;5.50;;;15.00;88.40;;;;;;5052297;28;20028;-78
2021/07/01 01:54:50;;;;;;;9.63;4.90;;;15.00;88.40;;;;;;5051941;28;20380;-78
2021/07/01 01:57:16;;;;;;;9.55;5.25;;;15.00;88.30;;;;;;5051895;28;20128;-78
2021/07/01 01:59:41;;;;;;;10.20;5.15;;;15.00;88.30;;;;;;5051763;28;20017;-78
2021/07/01 02:02:07;;;;;;;7.47;4.63;;;15.00;88.40;;;;;;5052874;28;20100;-78
2021/07/01 02:04:32;;;;;;;13.32;5.05;;;15.00;88.40;;;;;;5052779;28;20432;-78
2021/07/01 02:06:58;;;;;;;9.65;4.65;;;15.00;88.40;;;;;;5053003;28;20025;-77
2021/07/01 02:09:24;;;;;;;7.43;4.43;;;15.00;88.40;;;;;;5051765;28;20036;-78
2021/07/01 02:11:49;;;;;;;9.15;4.95;;;15.00;88.50;;;;;;5053079;28;20021;-76
2021/07/01 02:14:18;;;;;;;10.20;5.82;;;15.00;88.50;;;;;;5052997;28;20053;-78
2021/07/01 02:16:44;;;;;;;10.45;4.75;;;14.90;88.50;;;;;;5053101;28;20025;-75
2021/07/01 02:19:09;;;;;;;11.05;4.55;;;14.90;88.50;;;;;;5051608;28;20028;-78
2021/07/01 02:21:35;;;;;;;8.82;4.80;;;14.90;88.50;;;;;;5052786;28;20021;-78
2021/07/01 02:24:01;;;;;;;8.70;4.55;;;14.90;88.50;;;;;;5052654;28;20431;-78
2021/07/01 02:26:26;;;;;;;10.02;4.72;;;14.80;88.60;;;;;;5052872;28;20096;-78
2021/07/01 02:28:52;;;;;;;9.15;4.50;;;14.80;88.70;;;;;;5051608;28;20462;-76
2021/07/01 02:31:17;;;;;;;6.53;3.97;;;14.70;88.80;;;;;;5051561;28;20071;-78
2021/07/01 02:33:43;;;;;;;8.10;4.35;;;14.70;88.80;;;;;;5052663;28;20477;-78
2021/07/01 02:36:09;;;;;;;6.45;4.10;;;14.60;88.90;;;;;;5051314;28;20025;-78
2021/07/01 02:38:35;;;;;;;6.88;4.68;;;14.60;88.90;;;;;;5051659;28;20025;-76
2021/07/01 02:41:00;;;;;;;7.03;4.03;;;14.60;89.00;;;;;;5051255;28;20481;-76
2021/07/01 02:43:26;;;;;;;7.95;4.63;;;14.60;89.10;;;;;;5052450;28;20032;-76
2021/07/01 02:45:52;;;;;;;7.00;4.43;;;14.60;89.10;;;;;;5051507;28;20032;-75
2021/07/01 02:48:17;;;;;;;7.22;4.22;;;14.60;89.20;;;;;;5051258;28;20025;-76
2021/07/01 02:50:44;;;;;;;5.30;4.18;;;14.60;89.30;;;;;;5051302;28;20013;-76
2021/07/01 02:53:09;;;;;;;6.25;3.60;;;14.60;89.40;;;;;;5053592;28;20029;-77
2021/07/01 02:55:35;;;;;;;9.60;4.63;;;14.60;89.40;;;;;;5056147;28;20032;-76
2021/07/01 02:58:01;;;;;;;7.13;4.03;;;14.60;89.50;;;;;;5054906;28;20021;-77
2021/07/01 03:00:27;;;;;;;9.57;4.43;;;14.50;89.40;;;;;;5054895;28;20073;-76
2021/07/01 03:02:52;;;;;;;8.27;4.50;;;14.50;89.60;;;;;;5055954;28;20033;-77
2021/07/01 03:05:18;;;;;;;7.47;4.30;;;14.40;89.60;;;;;;5054564;28;20504;-76
2021/07/01 03:07:43;;;;;;;8.35;4.45;;;14.40;89.70;;;;;;5054762;28;20075;-77
2021/07/01 03:10:09;;;;;;;7.00;4.03;;;14.40;89.80;;;;;;5055949;28;20078;-77
2021/07/01 03:12:35;;;;;;;6.20;4.10;;;14.40;89.90;;;;;;5056047;28;20067;-77
2021/07/01 03:15:00;;;;;;;7.57;4.07;;;14.40;90.00;;;;;;5054540;28;20029;-77
2021/07/01 03:17:26;;;;;;;8.95;4.43;;;14.40;89.90;;;;;;5055832;28;20033;-77
2021/07/01 03:19:52;;;;;;;7.80;4.10;;;14.40;90.00;;;;;;5054453;28;20104;-76
2021/07/01 03:22:17;;;;;;;11.07;4.70;;;14.30;89.90;;;;;;5054458;28;20102;-77
2021/07/01 03:24:43;;;;;;;7.30;4.03;;;14.30;89.90;;;;;;5054409;28;20037;-77
2021/07/01 03:27:09;;;;;;;7.05;4.28;;;14.40;90.00;;;;;;5055669;28;20052;-76
2021/07/01 03:29:36;;;;;;;8.75;4.57;;;14.40;89.90;;;;;;5055733;28;20045;-76
2021/07/01 03:32:01;;;;;;;8.40;3.90;;;14.40;89.90;;;;;;5054665;28;20078;-78
2021/07/01 03:34:27;;;;;;;8.43;4.03;;;14.30;89.90;;;;;;5054474;28;20427;-77
2021/07/01 03:36:52;;;;;;;7.05;3.90;;;14.40;89.90;;;;;;5055459;28;20104;-76
2021/07/01 03:39:18;;;;;;;6.20;3.88;;;14.40;89.90;;;;;;5054202;28;20021;-77
2021/07/01 03:41:43;;;;;;;8.52;4.38;;;14.40;89.90;;;;;;5054163;28;20013;-76
2021/07/01 03:44:10;;;;;;;8.63;3.95;;;14.40;89.90;;;;;;5055563;28;20045;-77
2021/07/01 03:46:39;;;;;;;7.68;4.35;;;14.50;89.80;;;;;;5055316;28;20074;-76
2021/07/01 03:49:05;;;;;;;8.77;3.78;;;14.50;89.70;;;;;;5055316;28;20499;-77
2021/07/01 03:51:31;;;;;;;7.15;3.90;;;14.50;89.70;;;;;;5055400;28;20025;-76
2021/07/01 03:53:56;;;;;;;10.15;4.22;;;14.50;89.70;;;;;;5055206;28;20025;-76
2021/07/01 03:56:22;;;;;;;6.35;3.95;;;14.50;89.60;;;;;;5055060;28;20032;-77
2021/07/01 03:58:48;;;;;;;8.70;4.22;;;14.50;89.60;;;;;;5055110;28;20103;-76
2021/07/01 04:01:14;;;;;;;8.48;3.72;;;14.50;89.60;;;;;;5053632;28;20021;-77
2021/07/01 04:03:39;;;;;;;7.88;4.07;;;14.50;89.50;;;;;;5053124;28;20025;-76
2021/07/01 04:06:05;;;;;;;8.27;4.32;;;14.50;89.50;;;;;;5054912;28;20021;-76
2021/07/01 04:08:30;;;;;;;7.63;3.88;;;14.50;89.50;;;;;;5055225;28;20096;-77
2021/07/01 04:10:56;;;;;;;8.15;4.03;;;14.50;89.50;;;;;;5053974;28;20071;-77
2021/07/01 04:13:22;;;;;;;10.38;4.40;;;14.50;89.40;;;;;;5054742;28;20075;-76
2021/07/01 04:15:47;;;;;;;7.55;3.72;;;14.50;89.40;;;;;;5053358;28;20083;-76
2021/07/01 04:18:14;;;;;;;8.98;4.28;;;14.50;89.40;;;;;;5053803;28;20043;-77
2021/07/01 04:20:40;;;;;;;9.18;3.85;;;14.50;89.40;;;;;;5054806;28;20017;-76
2021/07/01 04:23:06;;;;;;;10.35;4.20;;;14.60;89.50;;;;;;5054555;28;20021;-76
2021/07/01 04:25:33;;;;;;;7.40;3.65;;;14.60;89.50;;;;;;5054714;28;20025;-76
2021/07/01 04:27:59;;;;;;;7.63;3.83;;;14.60;89.40;;;;;;5054358;28;20025;-76
2021/07/01 04:30:24;;;;;;;9.18;4.40;;;14.60;89.40;;;;;;5054410;28;20534;-76
2021/07/01 04:32:50;;;;;;;7.88;3.90;;;14.60;89.30;;;;;;5052968;28;20029;-76
2021/07/01 04:35:16;;;;;;;7.60;3.63;;;14.60;89.30;;;;;;5053043;28;20066;-76
2021/07/01 04:37:41;;;;;;;9.52;4.47;;;14.60;89.30;;;;;;5054554;28;20092;-76
2021/07/01 04:40:09;;;;;;;6.45;4.13;;;14.60;89.30;;;;;;5053004;28;20024;-76
2021/07/01 04:42:36;;;;;;;11.70;4.10;;;14.60;89.20;;;;;;5054343;28;20098;-76
2021/07/01 04:45:06;;;;;;;7.20;3.97;;;14.60;89.20;;;;;;5053535;28;20125;-77
2021/07/01 04:47:32;;;;;;;6.88;4.00;;;14.60;89.20;;;;;;5054753;28;20029;-76
2021/07/01 04:49:57;;;;;;;5.80;3.67;;;14.60;89.20;;;;;;5052967;28;20021;-77
2021/07/01 04:52:23;;;;;;;8.80;3.90;;;14.70;89.20;;;;;;5053059;28;20029;-77
2021/07/01 04:54:49;;;;;;;5.30;3.70;;;14.70;89.20;;;;;;5053950;28;20031;-76
2021/07/01 04:57:14;;;;;;;6.47;3.85;;;14.70;89.20;;;;;;5052832;28;20116;-77
2021/07/01 04:59:40;;;;;;;7.63;4.03;;;14.60;89.10;;;;;;5052746;28;20025;-76
2021/07/01 05:02:05;;;;;;;6.25;4.03;;;14.60;89.10;;;;;;5054035;28;20025;-76
2021/07/01 05:04:31;;;;;;;6.22;4.13;;;14.60;89.20;;;;;;5052427;28;20491;-77
2021/07/01 05:06:56;;;;;;;8.15;4.00;;;14.60;89.10;;;;;;5053786;28;20070;-76
2021/07/01 05:09:22;;;;;;;9.25;4.03;;;14.60;89.10;;;;;;5053763;28;20025;-77
2021/07/01 05:11:47;;;;;;;8.57;3.90;;;14.60;89.10;;;;;;5053678;28;20060;-76
2021/07/01 05:14:13;;;;;;;5.97;4.22;;;14.60;89.10;;;;;;5053530;28;20025;-76
2021/07/01 05:16:38;;;;;;;8.30;4.10;;;14.60;89.20;;;;;;5052011;28;20127;-76
2021/07/01 05:19:04;;;;;;;8.55;4.22;;;14.60;89.20;;;;;;5052410;28;20032;-76
2021/07/01 05:21:30;;;;;;;8.05;4.20;;;14.60;89.10;;;;;;5053745;28;20029;-76
2021/07/01 05:23:56;;;;;;;5.95;3.95;;;14.60;89.10;;;;;;5053477;28;20465;-77
2021/07/01 05:26:22;;;;;;;7.20;3.90;;;14.60;89.10;;;;;;5052871;28;20540;-77
2021/07/01 05:28:48;;;;;;;7.07;4.10;;;14.60;89.10;;;;;;5052293;28;20120;-76
2021/07/01 05:31:14;;;;;;;7.15;3.83;;;14.60;89.10;;;;;;5053368;28;20441;-77
2021/07/01 05:33:39;;;;;;;7.00;4.20;;;14.60;89.10;;;;;;5053262;28;20103;-77
2021/07/01 05:36:05;;;;;;;9.02;4.47;;;14.70;89.10;;;;;;5052098;28;20021;-77
2021/07/01 05:38:31;;;;;;;6.90;4.45;;;14.70;89.10;;;;;;5051976;28;20071;-77
2021/07/01 05:40:57;;;;;;;8.43;4.07;;;14.70;89.10;;;;;;5051926;28;20116;-77
2021/07/01 05:43:24;;;;;;;7.88;4.75;;;14.70;89.70;;;;;;5051782;28;20111;-77
2021/07/01 05:45:50;;;;;;;8.38;4.80;;;14.70;89.00;;;;;;5052088;28;20021;-77
2021/07/01 05:48:16;;;;;;;7.07;4.43;;;14.70;89.10;;;;;;5053070;28;20025;-77
2021/07/01 05:50:47;;;;;;;6.25;4.47;;;14.70;89.30;;;;;;5051993;28;20017;-77
2021/07/01 05:53:18;;;;;;;8.18;4.50;;;14.80;89.10;;;;;;5051916;28;20025;-77
2021/07/01 05:55:43;;;;;;;9.02;4.30;;;14.70;89.10;;;;;;5051680;28;20044;-77
2021/07/01 05:58:09;;;;;;;6.47;4.18;;;14.70;89.10;;;;;;5053111;28;20021;-77
2021/07/01 06:00:34;;;;;;;6.20;3.90;;;14.70;89.10;;;;;;5052921;28;20542;-77
2021/07/01 06:03:00;;;;;;;9.73;4.10;;;14.70;89.00;;;;;;5051974;28;20512;-77
2021/07/01 06:05:25;;;;;;;8.73;4.75;;;14.80;89.00;;;;;;5051347;28;20045;-77
2021/07/01 06:07:55;;;;;;;8.07;4.60;;;14.80;89.00;;;;;;5053018;28;20025;-77
2021/07/01 06:10:24;;;;;;;7.95;4.25;;;14.70;88.90;;;;;;5051840;28;20095;-77
2021/07/01 06:12:50;;;;;;;8.18;4.32;;;14.80;89.00;;;;;;5051499;28;20019;-77
2021/07/01 06:15:16;;;;;;;8.57;4.20;;;14.80;89.00;;;;;;5051603;28;20027;-77
2021/07/01 06:17:43;;;;;;;5.68;4.40;;;14.80;88.90;;;;;;5053041;28;20025;-77
2021/07/01 06:20:10;;;;;;;6.00;3.92;;;14.80;89.10;;;;;;5052826;28;20032;-77
2021/07/01 06:22:36;;;;;;;4.75;3.63;;;14.80;89.10;;;;;;5052756;28;20028;-77
2021/07/01 06:25:03;;;;;;;10.20;4.43;;;14.90;89.10;;;;;;5051430;28;20029;-77
2021/07/01 06:27:34;;;;;;;6.22;4.05;;;14.90;89.00;;;;;;5055871;28;20017;-78
2021/07/01 06:30:04;;;;;;;7.07;3.80;;;14.90;88.90;;;;;;5057019;28;20028;-78
2021/07/01 06:32:34;;;;;;;7.63;3.70;;;15.00;89.00;;;;;;5055471;28;20021;-78
2021/07/01 06:34:59;;;;;;;10.15;4.55;;;15.00;88.90;;;;;;5055275;28;20021;-77
2021/07/01 06:37:26;;;;;;;6.03;4.38;;;15.00;88.80;;;;;;5057002;28;20021;-77
2021/07/01 06:39:56;;;;;;;6.00;3.63;;;15.00;88.80;;;;;;5055629;28;20033;-78
2021/07/01 06:42:23;;;;;;;5.80;3.67;;;15.00;88.80;;;;;;5056869;28;20443;-78
2021/07/01 06:44:49;;;;;;;6.05;3.60;;;15.10;88.90;;;;;;5055362;28;20373;-79
2021/07/01 06:47:16;;;;;;;5.80;3.40;;;15.10;88.90;;;;;;5056932;28;20100;-75
2021/07/01 06:49:43;;;;;;;5.85;3.65;;;15.10;88.80;;;;;;5055009;28;20108;-75
2021/07/01 06:52:13;;;;;;;3.67;3.10;;;15.20;88.80;;;;;;5055052;28;20435;-74
2021/07/01 06:54:40;;;;;;;5.00;3.00;;;15.20;88.70;;;;;;5056304;28;20469;-75
2021/07/01 06:57:06;;;;;;;4.25;3.28;;;15.30;88.70;;;;;;5054915;28;20027;-76
2021/07/01 06:59:31;;;;;;;5.60;3.17;;;15.30;88.50;;;;;;5054895;28;20032;-77
2021/07/01 07:01:59;;;;;;;5.20;3.50;;;15.30;88.30;;;;;;5056087;28;20017;-78
2021/07/01 07:04:26;;;;;;;7.53;4.10;;;15.30;88.10;;;;;;5055898;28;20073;-75
2021/07/01 07:06:51;;;;;;;8.27;4.30;;;15.40;88.10;;;;;;5056043;28;20496;-80
2021/07/01 07:09:17;;;;;;;6.07;3.40;;;15.40;88.10;;;;;;5055977;28;20021;-77
2021/07/01 07:11:43;;;;;;;7.32;3.72;;;15.40;88.10;;;;;;5056058;28;20530;-78
2021/07/01 07:14:09;;;;;;;6.38;3.97;;;15.40;88.10;;;;;;5054713;28;20500;-78
2021/07/01 07:16:39;;;;;;;6.90;4.60;;;15.40;88.00;;;;;;5054570;28;20392;-74
2021/07/01 07:19:08;;;;;;;7.43;4.53;;;15.50;88.00;;;;;;5054534;28;20078;-75
2021/07/01 07:21:45;;;;;;;5.97;3.90;;;15.50;87.90;;;;;;5054552;28;20025;-77
2021/07/01 07:24:14;;;;;;;6.90;4.45;;;15.50;87.80;;;;;;5055718;28;20391;-78
2021/07/01 07:26:41;;;;;;;6.70;3.75;;;15.50;87.90;;;;;;5054594;28;20024;-80
2021/07/01 07:29:08;;;;;;;8.45;4.47;;;15.60;87.90;;;;;;5054650;28;20103;-82
2021/07/01 07:31:41;;;;;;;7.47;4.57;;;15.50;87.80;;;;;;5055857;28;20021;-82
2021/07/01 07:34:07;;;;;;;6.90;4.15;;;15.60;87.80;;;;;;5054371;28;20032;-80
2021/07/01 07:36:34;;;;;;;8.00;4.55;;;15.60;88.00;;;;;;5054759;28;20374;-80
2021/07/01 07:39:01;;;;;;;7.93;4.75;;;15.60;87.80;;;;;;5055079;28;20051;-83
2021/07/01 07:41:27;;;;;;;6.80;4.65;;;15.60;87.80;;;;;;5054349;28;20369;-80
2021/07/01 07:43:54;;;;;;;10.27;5.13;;;15.60;87.80;;;;;;5053968;28;20021;-80
2021/07/01 07:46:25;;;;;;;8.98;5.05;;;15.70;87.80;;;;;;5055614;28;20472;-80
2021/07/01 07:48:52;;;;;;;8.25;4.70;;;15.60;87.70;;;;;;5054487;28;20021;-80
2021/07/01 07:51:22;;;;;;;10.13;5.25;;;15.60;87.80;;;;;;5056042;28;20024;-80
2021/07/01 07:53:52;;;;;;;6.43;4.50;;;15.60;87.80;;;;;;5056848;28;20480;-79
2021/07/01 07:56:25;;;;;;;9.13;4.78;;;15.60;87.80;;;;;;5056232;28;20021;-79
2021/07/01 07:58:54;;;;;;;6.85;4.10;;;15.60;87.80;;;;;;5059331;28;20100;-80
2021/07/01 08:01:21;;;;;;;8.43;4.40;;;15.60;87.80;;;;;;5056059;28;20112;-80
2021/07/01 08:03:52;;;;;;;10.15;5.38;;;15.70;87.70;;;;;;5054652;28;20045;-82
2021/07/01 08:06:23;;;;;;;10.90;5.15;;;15.70;87.70;;;;;;5053908;28;20025;-82
2021/07/01 08:08:52;;;;;;;10.07;5.38;;;15.60;87.60;;;;;;5053980;28;20063;-82
2021/07/01 08:11:18;;;;;;;10.15;5.72;;;15.60;87.70;;;;;;5054130;28;20025;-82
2021/07/01 08:13:48;;;;;;;10.85;5.88;;;15.70;87.80;;;;;;5053743;28;20020;-81
2021/07/01 08:16:14;;;;;;;8.88;4.88;;;15.60;87.80;;;;;;5055235;28;20031;-83
2021/07/01 08:18:41;;;;;;;9.68;5.75;;;15.60;87.80;;;;;;5054421;28;20029;-82
2021/07/01 08:24:29;;;;;;;9.90;4.88;;;15.60;87.70;;;;;;5055093;28;20048;-78
2021/07/01 08:26:55;;;;;;;9.75;5.32;;;15.60;87.70;;;;;;5053794;28;20017;-78
2021/07/01 08:29:24;;;;;;;10.35;4.82;;;15.60;87.80;;;;;;5053416;28;20093;-80
2021/07/01 08:31:50;;;;;;;8.52;5.43;;;15.60;87.80;;;;;;5055142;28;20024;-79
2021/07/01 08:34:21;;;;;;;10.52;5.70;;;15.60;87.80;;;;;;5054450;28;20029;-79
2021/07/01 08:36:49;;;;;;;10.18;5.22;;;15.60;87.80;;;;;;5053860;28;20021;-78
2021/07/01 08:39:14;;;;;;;9.63;5.45;;;15.70;87.90;;;;;;5053536;28;20035;-78
2021/07/01 08:41:44;;;;;;;10.85;5.25;;;15.60;87.80;;;;;;5053545;28;20056;-78
2021/07/01 08:44:17;;;;;;;11.45;5.72;;;15.60;87.90;;;;;;5053103;28;20025;-78
2021/07/01 08:47:09;;;;;;;13.43;5.60;;;15.70;88.00;;;;;;5054371;28;20028;-78
2021/07/01 08:49:51;;;;;;;10.20;5.13;;;15.70;88.00;;;;;;5047659;28;20082;-78
2021/07/01 08:52:22;;;;;;;9.93;5.30;;;15.70;88.00;;;;;;5054113;28;20021;-79
2021/07/01 08:54:48;;;;;;;9.65;5.50;;;15.80;88.00;;;;;;5054159;28;20040;-78
2021/07/01 08:57:15;;;;;;;9.52;5.70;;;15.80;88.00;;;;;;5053278;28;20029;-78
2021/07/01 08:59:53;;;;;;;11.05;5.68;;;15.80;87.90;;;;;;5053709;28;20389;-78
2021/07/01 09:02:23;;;;;;;8.30;5.28;;;15.90;87.90;;;;;;5053837;28;20389;-78
2021/07/01 09:04:54;;;;;;;12.38;5.85;;;15.90;87.90;;;;;;5052402;28;20037;-77
2021/07/01 09:07:23;;;;;;;9.30;5.25;;;16.00;87.80;;;;;;5054170;28;20024;-78
2021/07/01 09:09:54;;;;;;;10.95;5.40;;;16.00;87.80;;;;;;5052991;28;20025;-80
2021/07/01 09:12:23;;;;;;;9.30;5.30;;;16.00;87.80;;;;;;5053371;28;20120;-83
2021/07/01 09:15:03;;;;;;;11.48;5.30;;;16.00;87.80;;;;;;5052626;28;20528;-81
2021/07/01 09:17:31;;;;;;;10.93;4.70;;;16.00;87.80;;;;;;5053620;28;20017;-81
2021/07/01 09:19:59;;;;;;;10.38;5.45;;;16.00;87.80;;;;;;5052638;28;20014;-79
2021/07/01 09:22:27;;;;;;;9.43;5.22;;;16.00;87.80;;;;;;5053717;28;20031;-81
2021/07/01 09:24:54;;;;;;;12.10;5.70;;;16.00;87.90;;;;;;5053705;28;20029;-79
2021/07/01 09:27:21;;;;;;;10.60;5.30;;;16.00;87.90;;;;;;5053124;28;20021;-81
2021/07/01 09:29:49;;;;;;;9.90;5.50;;;16.00;88.00;;;;;;5052714;28;20025;-79
2021/07/01 09:32:17;;;;;;;11.48;5.72;;;16.00;88.00;;;;;;5053791;28;20027;-80
2021/07/01 09:34:46;;;;;;;9.18;5.53;;;16.00;88.00;;;;;;5052599;28;20047;-84
2021/07/01 09:37:12;;;;;;;11.20;5.53;;;16.00;88.00;;;;;;5052867;28;20092;-82
2021/07/01 09:39:38;;;;;;;10.63;5.60;;;16.00;88.70;;;;;;5052377;28;20063;-83
2021/07/01 09:42:06;;;;;;;10.57;5.35;;;16.00;88.10;;;;;;5052303;28;20021;-84
2021/07/01 09:44:33;;;;;;;14.43;6.25;;;16.00;88.10;;;;;;5052310;28;20027;-80
2021/07/01 09:47:06;;;;;;;11.68;5.50;;;16.00;88.10;;;;;;5052457;28;20016;-85
2021/07/01 09:49:40;;;;;;;11.83;5.40;;;16.00;88.20;;;;;;5052143;28;20454;-81
2021/07/01 09:52:13;;;;;;;11.82;5.60;;;16.00;88.20;;;;;;5053603;28;20783;-83
2021/07/01 09:54:50;;;;;;;11.52;6.20;;;15.90;88.30;;;;;;5054720;28;20052;-82
2021/07/01 09:57:28;;;;;;;12.88;5.45;;;15.90;88.30;;;;;;5053227;28;20029;-80
2021/07/01 09:59:58;;;;;;;12.93;6.13;;;15.90;88.50;;;;;;5052471;28;20036;-80
2021/07/01 10:02:24;;;;;;;10.45;5.63;;;15.90;88.40;;;;;;5052263;28;20052;-79
2021/07/01 10:04:52;;;;;;;9.38;5.43;;;15.90;88.40;;;;;;5051786;28;20045;-81
2021/07/01 10:07:19;;;;;;;8.18;5.18;;;15.90;88.50;;;;;;5051839;28;20041;-81
2021/07/01 10:09:46;;;;;;;11.23;5.82;;;15.90;88.50;;;;;;5051635;28;20025;-82
2021/07/01 10:12:26;;;;;;;11.57;5.82;;;15.90;88.50;;;;;;5052072;28;20017;-82
2021/07/01 10:14:58;;;;;;;10.05;5.80;;;15.90;88.50;;;;;;5051479;28;20040;-85
2021/07/01 10:17:25;;;;;;;12.40;5.90;;;16.00;88.50;;;;;;5051926;28;20516;-81
2021/07/01 10:20:07;;;;;;;11.10;5.60;;;16.00;88.50;;;;;;5049060;28;20033;-80
2021/07/01 10:22:38;;;;;;;11.95;6.32;;;16.00;88.50;;;;;;5053099;28;20056;-85
2021/07/01 10:25:05;;;;;;;13.55;6.10;;;16.10;88.50;;;;;;5052351;28;20025;-83
2021/07/01 10:27:34;;;;;;;12.75;5.80;;;16.10;88.40;;;;;;5051756;28;20549;-81
2021/07/01 10:30:12;;;;;;;10.77;6.47;;;16.10;88.40;;;;;;5051752;28;20013;-82
2021/07/01 10:32:47;;;;;;;11.85;5.72;;;16.20;88.40;;;;;;5051773;28;20028;-80
2021/07/01 10:35:58;;;;;;;14.68;6.78;;;16.20;88.40;;;;;;5051939;28;20043;-78
2021/07/01 10:38:24;;;;;;;13.73;6.30;;;16.20;88.40;;;;;;5051377;28;20039;-78
2021/07/01 10:44:23;;;;;;;9.38;5.57;;;16.20;88.30;;;;;;5054375;28;20075;-80
2021/07/01 10:46:48;;;;;;;10.80;6.00;;;16.30;88.30;;;;;;5056988;28;20033;-80
2021/07/01 10:49:16;;;;;;;12.13;6.05;;;16.30;88.20;;;;;;5054397;28;20396;-80
2021/07/01 10:51:58;;;;;;;13.50;6.03;;;16.40;88.20;;;;;;5052299;28;20027;-80
2021/07/01 10:54:25;;;;;;;10.35;5.90;;;16.40;88.20;;;;;;5055262;28;20033;-79
2021/07/01 10:56:54;;;;;;;11.20;5.80;;;16.50;88.10;;;;;;5057343;28;20108;-79
2021/07/01 10:59:20;;;;;;;11.52;5.45;;;16.50;88.00;;;;;;5054291;28;20438;-80
2021/07/01 11:01:52;;;;;;;12.98;5.70;;;16.60;88.10;;;;;;5063866;28;20032;-80
2021/07/01 11:04:19;;;;;;;12.00;6.20;;;16.60;88.00;;;;;;5061630;28;20079;-80
2021/07/01 11:06:55;;;;;;;12.52;5.80;;;16.60;87.90;;;;;;5064670;28;20025;-80
2021/07/01 11:09:21;;;;;;;13.82;6.10;;;16.60;87.90;;;;;;5062053;28;20027;-80
2021/07/01 11:11:47;;;;;;;12.57;5.85;;;16.70;88.00;;;;;;5066893;28;20041;-80
2021/07/01 11:14:15;;;;;;;12.48;6.20;;;16.70;87.90;;;;;;5056458;28;20029;-78
2021/07/01 11:16:47;;;;;;;11.27;6.53;;;16.70;87.90;;;;;;5054975;28;20025;-79
2021/07/01 11:19:18;;;;;;;11.33;6.30;;;16.70;87.80;;;;;;5055003;28;20021;-79
2021/07/01 11:21:46;;;;;;;12.52;6.03;;;16.70;87.90;;;;;;5054704;28;20350;-78
2021/07/01 11:24:17;;;;;;;12.77;6.22;;;16.70;87.90;;;;;;5054433;28;20024;-79
2021/07/01 11:26:45;;;;;;;14.68;7.07;;;16.70;87.90;;;;;;5054736;28;20380;-78
2021/07/01 11:32:33;;;;;;;14.85;6.72;;;16.70;87.90;;;;;;5056065;28;20443;-79
2021/07/01 11:34:59;;;;;;;15.05;6.78;;;16.70;87.90;;;;;;5054391;28;20043;-79
2021/07/01 11:37:39;;;;;;;13.57;6.40;;;16.70;87.90;;;;;;5054302;28;20108;-79
2021/07/01 11:43:28;;;;;;;9.43;5.60;;;16.70;87.90;;;;;;5055972;28;20039;-79
2021/07/01 11:45:55;;;;;;;13.10;6.10;;;16.70;87.80;;;;;;5054374;28;20025;-79
2021/07/01 11:48:23;;;;;;;10.05;5.68;;;16.80;87.80;;;;;;5054140;28;20049;-79
2021/07/01 11:50:54;;;;;;;10.60;5.75;;;16.80;87.90;;;;;;5051457;28;20032;-80
2021/07/01 11:53:21;;;;;;;12.05;5.78;;;16.80;87.80;;;;;;5054425;28;20032;-78
2021/07/01 11:55:49;;;;;;;10.48;5.68;;;16.90;87.80;;;;;;5054171;28;20013;-79
2021/07/01 11:58:15;;;;;;;11.60;5.25;;;16.90;87.60;;;;;;5054130;28;20388;-80
2021/07/01 12:00:41;;;;;;;9.55;5.20;;;17.00;87.60;;;;;;5053581;28;20373;-80
2021/07/01 12:03:08;;;;;;;8.20;4.68;;;17.10;87.30;;;;;;5053843;28;20021;-79
2021/07/01 12:05:34;;;;;;;11.50;5.00;;;17.20;87.10;;;;;;5053801;28;20052;-79
2021/07/01 12:08:03;;;;;;;11.32;5.05;;;17.30;86.80;;;;;;5053809;28;20050;-79
2021/07/01 12:10:28;;;;;;;8.85;4.97;;;17.40;86.50;;;;;;5053788;28;20029;-80
2021/07/01 12:12:55;;;;;;;8.25;4.88;;;17.50;85.90;;;;;;5053631;28;20021;-79
2021/07/01 12:15:21;;;;;;;10.80;4.38;;;17.50;85.70;;;;;;5054846;28;20437;-81
2021/07/01 12:17:50;;;;;;;9.63;4.97;;;17.50;85.50;;;;;;5053510;28;20029;-80
2021/07/01 12:20:31;;;;;;;8.80;4.47;;;17.60;85.30;;;;;;5054787;28;20036;-79
2021/07/01 12:22:59;;;;;;;9.80;4.65;;;17.60;85.00;;;;;;5051794;28;20028;-79
2021/07/01 12:25:25;;;;;;;10.20;4.57;;;17.60;84.90;;;;;;5053374;28;20089;-80
2021/07/01 12:28:09;;;;;;;9.30;4.85;;;17.60;84.70;;;;;;5053235;28;20040;-80
2021/07/01 12:31:04;;;;;;;11.88;4.90;;;17.60;84.60;;;;;;5053442;28;20029;-80
2021/07/01 12:33:54;;;;;;;8.25;4.32;;;17.70;84.60;;;;;;5053380;28;20033;-80
2021/07/01 12:36:30;;;;;;;10.20;4.50;;;17.80;84.30;;;;;;5053253;28;20032;-80
2021/07/01 12:39:05;;;;;;;7.75;4.03;;;17.90;84.20;;;;;;5053204;28;20021;-80
2021/07/01 12:41:41;;;;;;;12.38;4.43;;;18.00;83.80;;;;;;5053224;28;20033;-80
2021/07/01 12:44:22;;;;;;;13.77;4.50;;;18.20;83.70;;;;;;5053053;28;20082;-80
2021/07/01 12:46:48;;;;;;;10.52;4.57;;;18.20;83.30;;;;;;5053295;28;20056;-78
2021/07/01 12:49:37;;;;;;;8.20;4.32;;;18.20;82.80;;;;;;5053079;28;20028;-80
2021/07/01 12:52:09;;;;;;;8.18;4.45;;;18.20;82.80;;;;;;5053160;28;20027;-80
2021/07/01 12:54:35;;;;;;;8.90;4.10;;;18.20;83.10;;;;;;5054386;28;20600;-80
2021/07/01 12:57:00;;;;;;;9.38;4.30;;;18.10;82.90;;;;;;5052848;28;20116;-80
2021/07/01 12:59:35;;;;;;;9.48;4.10;;;18.20;82.90;;;;;;5053973;28;20044;-80